Decoded Metar for LFRH (LORIENT in FRANCE) (IATA:LRT) | Meteo·Mobile Aviation Weather
aviador You're here:

LFRH Decoded Metar

LORIENT in FRANCE
Report Time2020-02-18 21:00:00
UTC Time2020-02-18 21:34:36
Flight Rules mvfr MVFR
Wind260° at 17 kt
W.Decomp.*RWY 25: 16.6 kt HW 3.5 kt RCW
RWY 20: 8.0 kt HW 15.0 kt RCW
Visibility9999 m
Phenomena:Shower Rain
Clouds:Few 009 Hf
Scattered TCU 020 Hf
Broken 021 Hf
Overcast 031 Hf
Expected CloudBase > 1,200 ft AGL from Temp-Dew spread
Ceiling2,100 ft
Temp10°C (ISA -5)
Dew Point07°C (82% RH)
AAT3.2°C
QNH1027 hPa
Density Alt-758 ft
Elevation144 ft
Report Wrong Elevation
Raw Report
LFRH 182100Z AUTO 26017KT 9999 FEW009 BKN021 OVC031 10/07 Q1027
TEMPO 27015G25KT 4500 SHRA SCT020TCU SCT025CB=

Extra information for LFRH:More info

Metar Taf Metar & Taf Last 4 Metars F.Rules Stats Wind Profile Meteogram Temp Stats Airport Information Weather charts Add Link Nearby VenuesMetar ALERT Operation Metar Decoded Social comments